Flugplatz Rothenburg o. d. T.

Für EDFR sind keine METAR/TAF Berichte vorhanden.
Es werden die Flugwettermeldungen vom Flugplatz Illesheim Air Base in 15 km Entfernung angezeigt.

Bericht für ETIK

vom 31.05. um 09:56 UTC

Wind 3 kt aus 50°

Sichtweite 10 km oder mehr

keine Wolken

Temperatur 16.7°C

Taupunkt 3.7°C

Luftfeuchtigkeit 42%

Luftdruck 1021 hPa

ETIK 310956Z AUTO 05003KT 9999 CLR 17/04 A3015 RMK AO2 SLP213 T01670037 FZRANO
Keine Prognose (TAF) verfügbar.
Impressum